Yeager Airport
KCRW : now visible

Airfield :











YOU CAN JOIN US ON...

 
LOGIN :

Register | Disclaimer

   EN    FR    IT 

 









Legend :    VFR   Marginal VFR   IFR   Intensive IFR   Very Intensive IFR
Visi :
Ceiling :
>= 8 km
>= 3000ft
5 to 8 km
1000 to 3000 ft
1500m to 5 km
500 to 1000 ft
800 to 1500m
200 to 500 ft
< 800m
< 200 ft
Symbols :   Thunderstorms  Fog  Heavy snow  Heavy precipitations  Wind > 20 kt






- Airport Elevation : 981 ft
- IATA code : CRW


KCRW - Yeager

CURRENT METAR :
  • 081954Z 00000KT 10SM SCT060 29/15 A3015 RMK AO2 SLP198 T02940150

EXPIRED METARs :
  • 081854Z VRB06KT 10SM SCT060 30/15 A3016 RMK AO2 SLP202 T03000150
  • 081754Z VRB04KT 10SM BKN060 30/16 A3017 RMK AO2 SLP206 T03000156 10306 20194 58006

TAF KCRW
Valid from the 08 at 18:00 until the 09 at 18:00 UTC


081726Z 0818/0918 VRB04KT P6SM SCT045
FM090800 00000KT 1/4SM FG VV001
FM091230 00000KT 4SM BR OVC003
FM091300 00000KT P6SM FEW050
KZID FIR / North America



MET'MAP, your aeronautical weather chart ! - Copyright ORBIFLY December 2007 - Disclaimer

ORBIFLY MET'MAP TEAM :

Programming & Development : Alexandra Zaïnal
Concept & original design : Baudouin d'Aumeries
Assistance for programming : Marc-Olivier Méhu
Technical & hardware support : Manuel Goepfert

Contact : metmap@orbifly.com




SOURCES & CREDITS :

   NOAA       Earth
Advisory